Carlsbad, New Mexico
Current Conditions -  °F | °C
As of 10:53 PM on Sunday 21 Dec 2014 (Local Time) from KCNM Reporting Station
Clear Clear  
Wind Chill: 62°   Ceiling: Unl
Heat Index: 62°   Visibility: 10mi
Dew Point: 26°   Wind: 26mph
Humidity: 25%   Direction: 250°WSW
Pressure: 29.75"   Gusts: 35mph
Location:  32.42°N, 104.22°W
Report Text: KCNM 220553Z AUTO 25023G30KT 10SM CLR 17/M03 A2975 RMK AO2 PK WND 25031/0456 SLP034 T01671033 10167 20156 53003 $
Loading
Personal Weather Stations






























Interactive Weather Map New forecast layout! Learn more

10-Day Weather Forecast

Advertisements
Track Severe Weather on mobile